createdAt,value
2023-03-25T00:00:19.260Z,6.63
2023-03-25T00:02:52.756Z,6.74
2023-03-25T00:05:24.459Z,6.78
2023-03-25T00:07:53.276Z,6.78
2023-03-25T00:10:21.187Z,6.80
2023-03-25T00:12:49.091Z,6.80
2023-03-25T00:15:18.212Z,6.64
2023-03-25T00:17:46.313Z,6.72
2023-03-25T00:20:14.769Z,6.68
2023-03-25T00:22:44.826Z,6.57
2023-03-25T00:25:20.556Z,6.54
2023-03-25T00:27:50.854Z,6.50
2023-03-25T00:30:19.651Z,6.48
2023-03-25T00:32:50.499Z,6.47
2023-03-25T00:35:20.191Z,6.46
2023-03-25T00:37:52.528Z,6.43
2023-03-25T00:40:20.707Z,6.48
2023-03-25T00:42:50.618Z,6.46
2023-03-25T00:45:18.813Z,6.38
2023-03-25T00:47:47.105Z,6.38
2023-03-25T00:50:15.605Z,6.32
2023-03-25T00:52:43.479Z,6.22
2023-03-25T00:55:11.621Z,6.07
2023-03-25T00:57:39.755Z,6.07
2023-03-25T01:00:11.431Z,6.04
2023-03-25T01:02:42.250Z,5.87
2023-03-25T01:05:12.385Z,5.93
2023-03-25T01:07:42.152Z,5.87
2023-03-25T01:10:11.793Z,5.83
2023-03-25T01:12:39.911Z,5.88
2023-03-25T01:15:09.995Z,5.86
2023-03-25T01:17:38.213Z,5.89
2023-03-25T01:20:06.781Z,5.75
2023-03-25T01:22:34.913Z,5.60
2023-03-25T01:25:02.709Z,5.61
2023-03-25T01:27:31.494Z,5.61
2023-03-25T01:29:59.355Z,5.64
2023-03-25T01:32:29.041Z,5.61
2023-03-25T01:34:57.903Z,5.67
2023-03-25T01:37:26.106Z,5.63
2023-03-25T01:39:54.141Z,5.65
2023-03-25T01:42:22.113Z,5.60
2023-03-25T01:44:52.899Z,5.54
2023-03-25T01:47:21.017Z,5.51
2023-03-25T01:49:56.687Z,5.46
2023-03-25T01:52:26.992Z,5.46
2023-03-25T01:54:57.610Z,5.24
2023-03-25T01:57:26.200Z,5.28
2023-03-25T01:59:55.619Z,5.29
2023-03-25T02:02:35.183Z,5.23
2023-03-25T02:05:37.722Z,5.23
2023-03-25T02:08:09.378Z,5.20
2023-03-25T02:10:37.846Z,5.19
2023-03-25T02:13:07.308Z,5.12
2023-03-25T02:15:52.444Z,5.10
2023-03-25T02:18:36.395Z,5.10
2023-03-25T02:21:38.132Z,5.03
2023-03-25T02:24:35.629Z,5.03
2023-03-25T02:27:34.114Z,5.05
2023-03-25T02:30:33.340Z,4.94
2023-03-25T02:33:07.375Z,4.91
2023-03-25T02:35:53.724Z,4.83
2023-03-25T02:38:47.911Z,4.82
2023-03-25T02:41:34.603Z,4.60
2023-03-25T02:44:30.126Z,4.77
2023-03-25T02:47:03.208Z,4.64
2023-03-25T02:49:41.316Z,4.73
2023-03-25T02:52:21.174Z,4.76
2023-03-25T02:56:41.127Z,4.79
2023-03-25T02:59:10.091Z,4.60
2023-03-25T03:01:38.010Z,4.55
2023-03-25T03:04:06.342Z,4.61
2023-03-25T03:06:42.048Z,4.69
2023-03-25T03:09:25.757Z,4.67
2023-03-25T03:12:01.987Z,4.61
2023-03-25T03:14:33.698Z,4.38
2023-03-25T03:17:18.603Z,4.54
2023-03-25T03:20:01.248Z,4.48
2023-03-25T03:22:52.900Z,4.48
2023-03-25T03:25:27.316Z,4.45
2023-03-25T03:28:32.310Z,4.13
2023-03-25T03:31:12.623Z,4.22
2023-03-25T03:34:06.508Z,4.34
2023-03-25T03:36:41.920Z,4.38
2023-03-25T03:39:28.089Z,4.44
2023-03-25T03:42:03.683Z,4.49
2023-03-25T03:44:36.182Z,4.46
2023-03-25T03:47:11.318Z,4.41
2023-03-25T03:49:47.701Z,4.28
2023-03-25T03:52:27.088Z,4.32
2023-03-25T03:55:00.405Z,4.33
2023-03-25T03:57:37.718Z,4.31
2023-03-25T04:00:10.131Z,4.22
2023-03-25T04:02:48.029Z,4.37
2023-03-25T04:05:19.823Z,3.98
2023-03-25T04:07:57.253Z,3.99
2023-03-25T04:10:39.647Z,4.11
2023-03-25T04:13:14.697Z,4.18
2023-03-25T04:15:43.870Z,4.14
2023-03-25T04:18:12.301Z,4.15
2023-03-25T04:20:50.639Z,4.05
2023-03-25T04:23:18.700Z,4.14
2023-03-25T04:25:55.870Z,4.11
2023-03-25T04:28:25.893Z,4.09
2023-03-25T04:30:56.017Z,4.11
2023-03-25T04:33:24.861Z,4.13
2023-03-25T04:35:53.834Z,4.12
2023-03-25T04:38:22.657Z,3.98
2023-03-25T04:40:50.607Z,4.06
2023-03-25T04:43:19.282Z,4.00
2023-03-25T04:45:55.049Z,4.13
2023-03-25T04:48:30.421Z,4.22
2023-03-25T04:50:59.726Z,4.24
2023-03-25T04:53:28.196Z,4.21
2023-03-25T04:55:56.898Z,4.27
2023-03-25T04:58:24.804Z,4.28
2023-03-25T05:00:54.236Z,4.37
2023-03-25T05:03:25.507Z,4.45
2023-03-25T05:05:53.984Z,4.38
2023-03-25T05:08:22.839Z,4.09
2023-03-25T05:10:50.978Z,4.32
2023-03-25T05:13:18.916Z,4.34
2023-03-25T05:15:48.183Z,4.41
2023-03-25T05:18:17.294Z,4.50
2023-03-25T05:20:47.390Z,4.54
2023-03-25T05:23:20.806Z,4.52
2023-03-25T05:25:51.426Z,4.55
2023-03-25T05:28:20.213Z,4.69
2023-03-25T05:30:48.328Z,4.78
2023-03-25T05:33:19.172Z,4.91
2023-03-25T05:35:48.181Z,5.08
2023-03-25T05:38:19.796Z,5.20
2023-03-25T05:40:49.170Z,5.32
2023-03-25T05:43:17.832Z,5.41
2023-03-25T05:45:47.230Z,5.20
2023-03-25T05:48:15.242Z,5.19
2023-03-25T05:50:46.959Z,5.29
2023-03-25T05:53:20.970Z,5.20
2023-03-25T05:55:52.711Z,5.18
2023-03-25T05:58:21.699Z,5.21
2023-03-25T06:00:49.578Z,5.30
2023-03-25T06:03:21.277Z,5.60
2023-03-25T06:05:50.111Z,5.79
2023-03-25T06:08:19.244Z,6.00
2023-03-25T06:10:48.961Z,5.93
2023-03-25T06:13:16.845Z,5.88
2023-03-25T06:15:44.817Z,6.16
2023-03-25T06:18:12.888Z,6.19
2023-03-25T06:20:41.014Z,6.29
2023-03-25T06:23:10.231Z,6.54
2023-03-25T06:25:38.304Z,6.80
2023-03-25T06:28:06.385Z,6.94
2023-03-25T06:30:34.420Z,6.80
2023-03-25T06:33:03.457Z,6.87
2023-03-25T06:35:31.532Z,6.88
2023-03-25T06:37:59.644Z,7.09
2023-03-25T06:40:39.479Z,7.18
2023-03-25T06:43:07.859Z,7.50
2023-03-25T06:45:38.532Z,7.65
2023-03-25T06:48:29.380Z,9.86
2023-03-25T06:50:57.630Z,13.00
2023-03-25T06:53:25.886Z,15.92
2023-03-25T06:55:58.318Z,18.15
2023-03-25T06:58:37.622Z,20.64
2023-03-25T07:01:07.823Z,23.15
2023-03-25T07:03:37.951Z,24.94
2023-03-25T07:06:06.867Z,26.41
2023-03-25T07:08:35.419Z,27.33
2023-03-25T07:11:08.061Z,28.17
2023-03-25T07:13:36.579Z,28.53
2023-03-25T07:16:05.268Z,28.78
2023-03-25T07:18:34.344Z,29.83
2023-03-25T07:21:02.719Z,29.81
2023-03-25T07:23:30.716Z,28.96
2023-03-25T07:25:58.926Z,30.31
2023-03-25T07:28:27.231Z,31.38
2023-03-25T07:30:55.878Z,31.26
2023-03-25T07:33:24.246Z,32.03
2023-03-25T07:35:52.913Z,31.82
2023-03-25T07:38:21.886Z,31.67
2023-03-25T07:40:50.907Z,32.23
2023-03-25T07:43:19.546Z,32.82
2023-03-25T07:45:56.674Z,33.54
2023-03-25T07:48:26.221Z,33.72
2023-03-25T07:50:54.824Z,33.84
2023-03-25T07:53:23.387Z,34.45
2023-03-25T07:55:51.958Z,35.00
2023-03-25T07:58:21.066Z,34.84
2023-03-25T08:00:49.431Z,35.34
2023-03-25T08:03:18.183Z,35.85
2023-03-25T08:05:49.638Z,36.31
2023-03-25T08:08:18.360Z,35.72
2023-03-25T08:10:50.418Z,35.12
2023-03-25T08:13:18.407Z,35.01
2023-03-25T08:15:46.296Z,35.28
2023-03-25T08:18:14.377Z,35.36
2023-03-25T08:20:42.920Z,35.24
2023-03-25T08:23:12.947Z,33.56
2023-03-25T08:25:42.243Z,33.84
2023-03-25T08:28:10.499Z,34.06
2023-03-25T08:30:39.302Z,34.72
2023-03-25T08:33:09.144Z,34.06
2023-03-25T08:35:39.967Z,32.94
2023-03-25T08:38:09.240Z,29.64
2023-03-25T08:40:37.234Z,28.60
2023-03-25T08:43:07.867Z,25.54
2023-03-25T08:45:36.826Z,25.13
2023-03-25T08:48:05.341Z,26.67
2023-03-25T08:50:33.984Z,26.52
2023-03-25T08:53:01.940Z,26.00
2023-03-25T08:55:29.929Z,27.17
2023-03-25T08:58:01.749Z,28.19
2023-03-25T09:00:30.266Z,29.29
2023-03-25T09:02:59.922Z,30.68
2023-03-25T09:05:28.382Z,30.68
2023-03-25T09:07:56.671Z,29.56
2023-03-25T09:10:24.624Z,29.57
2023-03-25T09:12:53.025Z,29.26
2023-03-25T09:15:21.609Z,29.58
2023-03-25T09:17:49.806Z,29.60
2023-03-25T09:20:19.472Z,29.70
2023-03-25T09:22:47.541Z,29.09
2023-03-25T09:25:16.040Z,29.64
2023-03-25T09:27:44.371Z,29.17
2023-03-25T09:30:12.958Z,28.46
2023-03-25T09:32:41.050Z,29.50
2023-03-25T09:35:09.067Z,29.84
2023-03-25T09:37:38.144Z,29.52
2023-03-25T09:40:08.399Z,28.30
2023-03-25T09:43:31.946Z,27.48
2023-03-25T09:46:01.718Z,27.58
2023-03-25T09:48:56.809Z,27.67
2023-03-25T09:51:36.343Z,28.84
2023-03-25T09:54:17.084Z,29.86
2023-03-25T09:56:45.434Z,29.85
2023-03-25T09:59:23.772Z,29.93
2023-03-25T10:02:11.320Z,30.29
2023-03-25T10:05:01.425Z,30.77
2023-03-25T10:07:38.970Z,31.06
2023-03-25T10:10:28.151Z,29.61
2023-03-25T10:13:20.110Z,28.07
2023-03-25T10:16:02.837Z,27.97
2023-03-25T10:18:49.188Z,27.65
2023-03-25T10:21:29.678Z,27.96
2023-03-25T10:24:03.810Z,27.58
2023-03-25T10:26:46.702Z,27.05
2023-03-25T10:29:22.559Z,26.96
2023-03-25T10:31:54.102Z,27.07
2023-03-25T10:34:50.981Z,27.05
2023-03-25T10:37:39.709Z,27.31
2023-03-25T10:40:35.126Z,27.42
2023-03-25T10:43:24.785Z,27.26
2023-03-25T10:46:01.837Z,27.11
2023-03-25T10:48:31.517Z,27.25
2023-03-25T10:51:21.397Z,27.49
2023-03-25T10:53:53.414Z,27.32
2023-03-25T10:56:31.698Z,27.35
2023-03-25T10:59:05.192Z,27.41
2023-03-25T11:01:39.916Z,27.58
2023-03-25T11:04:12.193Z,27.11
2023-03-25T11:06:46.289Z,27.08
2023-03-25T11:09:15.635Z,27.05
2023-03-25T11:11:44.776Z,26.63
2023-03-25T11:14:14.890Z,26.37
2023-03-25T11:16:44.612Z,26.00
2023-03-25T11:19:44.664Z,25.90
2023-03-25T11:22:19.870Z,25.41
2023-03-25T11:24:57.453Z,25.40
2023-03-25T11:27:29.392Z,25.04
2023-03-25T11:30:05.432Z,25.22
2023-03-25T11:32:37.329Z,25.01
2023-03-25T11:35:23.052Z,24.77
2023-03-25T11:38:03.173Z,24.92
2023-03-25T11:40:32.254Z,24.62
2023-03-25T11:43:02.497Z,25.01
2023-03-25T11:45:36.191Z,25.15
2023-03-25T11:48:21.974Z,25.14
2023-03-25T11:51:03.030Z,25.08
2023-03-25T11:53:33.781Z,24.94
2023-03-25T11:56:11.837Z,24.80
2023-03-25T11:58:40.893Z,24.95
2023-03-25T12:01:25.312Z,26.05
2023-03-25T12:04:07.014Z,26.21
2023-03-25T12:06:35.737Z,26.45
2023-03-25T12:09:10.376Z,26.47
2023-03-25T12:11:49.420Z,26.82
2023-03-25T12:14:55.050Z,26.44
2023-03-25T12:17:26.738Z,26.57
2023-03-25T12:20:13.805Z,26.76
2023-03-25T12:23:18.593Z,26.27
2023-03-25T12:25:59.160Z,26.01
2023-03-25T12:28:28.615Z,25.59
2023-03-25T12:31:04.538Z,25.31
2023-03-25T12:33:45.431Z,24.87
2023-03-25T12:36:39.228Z,24.94
2023-03-25T12:39:41.720Z,24.88
2023-03-25T12:42:30.803Z,24.18
2023-03-25T12:45:02.548Z,24.31
2023-03-25T12:47:42.839Z,23.82
2023-03-25T12:50:35.940Z,23.82
2023-03-25T12:53:15.232Z,23.91
2023-03-25T12:55:57.362Z,23.94
2023-03-25T12:58:34.860Z,24.17
2023-03-25T13:01:21.840Z,24.35
2023-03-25T13:04:01.246Z,24.61
2023-03-25T13:06:46.665Z,23.89
2023-03-25T13:09:49.485Z,23.88
2023-03-25T13:12:38.199Z,23.64
2023-03-25T13:15:28.646Z,23.41
2023-03-25T13:18:21.613Z,23.35
2023-03-25T13:21:09.034Z,22.87
2023-03-25T13:23:45.959Z,22.67
2023-03-25T13:26:23.596Z,22.48
2023-03-25T13:28:58.507Z,22.15
2023-03-25T13:31:35.900Z,22.08
2023-03-25T13:34:33.569Z,21.99
2023-03-25T13:37:29.756Z,21.78
2023-03-25T13:40:37.769Z,21.61
2023-03-25T13:43:41.900Z,21.40
2023-03-25T13:46:17.169Z,21.19
2023-03-25T13:48:54.545Z,21.04
2023-03-25T13:51:23.909Z,20.89
2023-03-25T13:53:57.835Z,20.96
2023-03-25T13:56:33.196Z,20.84
2023-03-25T13:59:40.309Z,20.74
2023-03-25T14:02:45.757Z,20.76
2023-03-25T14:05:47.770Z,20.48
2023-03-25T14:08:16.480Z,19.95
2023-03-25T14:10:54.220Z,19.88
2023-03-25T14:13:36.972Z,19.62
2023-03-25T14:16:10.452Z,19.19
2023-03-25T14:18:51.170Z,19.02
2023-03-25T14:21:42.894Z,18.73
2023-03-25T14:24:17.894Z,18.51
2023-03-25T14:26:58.278Z,17.95
2023-03-25T14:29:36.079Z,18.00
2023-03-25T14:32:26.510Z,17.81
2023-03-25T14:35:01.091Z,17.70
2023-03-25T14:37:33.699Z,17.47
2023-03-25T14:40:50.758Z,17.22
2023-03-25T14:43:26.691Z,17.22
2023-03-25T14:46:26.442Z,16.89
2023-03-25T14:49:30.548Z,16.93
2023-03-25T14:51:59.502Z,16.86
2023-03-25T14:54:32.716Z,16.71
2023-03-25T14:57:05.945Z,16.77
2023-03-25T14:59:46.055Z,16.87
2023-03-25T15:02:32.204Z,17.06
2023-03-25T15:05:25.879Z,17.13
2023-03-25T15:08:14.462Z,17.18
2023-03-25T15:11:06.288Z,16.65
2023-03-25T15:13:39.916Z,16.65
2023-03-25T15:16:20.318Z,16.86
2023-03-25T15:18:50.036Z,16.99
2023-03-25T15:21:19.486Z,17.04
2023-03-25T15:23:53.532Z,17.13
2023-03-25T15:26:28.907Z,17.13
2023-03-25T15:29:08.354Z,16.96
2023-03-25T15:32:15.296Z,16.24
2023-03-25T15:35:05.840Z,16.46
2023-03-25T15:38:05.860Z,16.27
2023-03-25T15:40:55.960Z,15.94
2023-03-25T15:43:47.162Z,15.99
2023-03-25T15:46:53.531Z,15.85
2023-03-25T15:49:45.871Z,16.07
2023-03-25T15:52:24.093Z,16.12
2023-03-25T15:54:56.446Z,15.98
2023-03-25T15:57:35.720Z,15.79
2023-03-25T16:00:35.102Z,16.02
2023-03-25T16:03:06.785Z,16.18
2023-03-25T16:05:39.268Z,16.24
2023-03-25T16:08:32.462Z,16.23
2023-03-25T16:11:25.933Z,16.25
2023-03-25T16:14:11.678Z,16.23
2023-03-25T16:16:45.688Z,16.24
2023-03-25T16:19:27.788Z,16.06
2023-03-25T16:21:56.381Z,15.88
2023-03-25T16:24:30.180Z,15.63
2023-03-25T16:26:58.669Z,15.68
2023-03-25T16:29:27.412Z,15.82
2023-03-25T16:31:59.880Z,15.90
2023-03-25T16:34:34.442Z,15.87
2023-03-25T16:37:03.882Z,15.84
2023-03-25T16:39:37.113Z,15.78
2023-03-25T16:42:27.451Z,15.76
2023-03-25T16:44:55.947Z,15.65
2023-03-25T16:47:25.167Z,15.62
2023-03-25T16:49:56.607Z,15.59
2023-03-25T16:52:32.795Z,15.49
2023-03-25T16:55:01.292Z,15.42
2023-03-25T16:57:34.385Z,15.39
2023-03-25T17:00:17.809Z,15.35
2023-03-25T17:02:48.818Z,15.30
2023-03-25T17:05:26.596Z,15.10
2023-03-25T17:08:04.420Z,15.04
2023-03-25T17:10:48.150Z,14.90
2023-03-25T17:13:31.200Z,14.83
2023-03-25T17:16:00.138Z,14.74
2023-03-25T17:18:32.630Z,14.62
2023-03-25T17:21:02.036Z,14.63
2023-03-25T17:23:46.251Z,14.57
2023-03-25T17:26:20.353Z,14.54
2023-03-25T17:28:51.916Z,14.48
2023-03-25T17:31:31.146Z,14.38
2023-03-25T17:34:32.505Z,14.33
2023-03-25T17:37:08.706Z,14.24
2023-03-25T17:39:37.275Z,14.07
2023-03-25T17:42:06.929Z,14.06
2023-03-25T17:44:38.190Z,13.83
2023-03-25T17:47:08.805Z,13.77
2023-03-25T17:49:37.226Z,13.74
2023-03-25T17:52:05.924Z,13.68
2023-03-25T17:54:34.651Z,13.63
2023-03-25T17:57:10.902Z,13.53
2023-03-25T17:59:39.390Z,13.51
2023-03-25T18:02:15.969Z,13.49
2023-03-25T18:04:44.973Z,13.49
2023-03-25T18:07:13.154Z,13.47
2023-03-25T18:09:42.221Z,13.39
2023-03-25T18:12:12.352Z,13.23
2023-03-25T18:14:42.628Z,13.14
2023-03-25T18:17:14.149Z,12.87
2023-03-25T18:19:42.975Z,12.76
2023-03-25T18:22:19.837Z,12.75
2023-03-25T18:24:49.187Z,12.76
2023-03-25T18:27:17.669Z,12.66
2023-03-25T18:29:46.146Z,12.66
2023-03-25T18:32:14.479Z,12.56
2023-03-25T18:34:43.408Z,12.48
2023-03-25T18:37:12.906Z,12.36
2023-03-25T18:39:41.498Z,12.31
2023-03-25T18:42:10.280Z,12.26
2023-03-25T18:44:39.120Z,12.16
2023-03-25T18:47:08.992Z,12.13
2023-03-25T18:49:37.601Z,12.11
2023-03-25T18:52:06.067Z,12.10
2023-03-25T18:54:34.479Z,11.98
2023-03-25T18:57:03.073Z,11.96
2023-03-25T18:59:31.862Z,11.95
2023-03-25T19:02:00.344Z,11.99
2023-03-25T19:04:29.861Z,11.91
2023-03-25T19:07:00.249Z,11.83
2023-03-25T19:09:32.401Z,11.81
2023-03-25T19:12:01.176Z,11.69
2023-03-25T19:14:29.435Z,11.64
2023-03-25T19:17:04.148Z,11.60
2023-03-25T19:19:32.771Z,11.51
2023-03-25T19:22:01.124Z,11.48
2023-03-25T19:24:29.629Z,11.46
2023-03-25T19:26:58.132Z,11.44
2023-03-25T19:29:26.693Z,11.36
2023-03-25T19:31:55.401Z,11.34
2023-03-25T19:34:23.813Z,10.99
2023-03-25T19:36:53.994Z,11.09
2023-03-25T19:39:23.168Z,10.97
2023-03-25T19:41:53.202Z,11.02
2023-03-25T19:44:21.856Z,11.03
2023-03-25T19:46:50.658Z,10.83
2023-03-25T19:49:28.936Z,10.76
2023-03-25T19:52:05.145Z,10.76
2023-03-25T19:54:33.779Z,10.65
2023-03-25T19:57:02.464Z,10.47
2023-03-25T19:59:31.117Z,10.55
2023-03-25T20:02:01.487Z,10.55
2023-03-25T20:04:30.144Z,10.50
2023-03-25T20:06:58.772Z,10.41
2023-03-25T20:09:30.525Z,10.21
2023-03-25T20:11:59.224Z,10.25
2023-03-25T20:14:27.974Z,10.26
2023-03-25T20:16:56.819Z,10.28
2023-03-25T20:19:26.165Z,10.20
2023-03-25T20:21:54.808Z,10.07
2023-03-25T20:24:23.428Z,10.06
2023-03-25T20:26:52.279Z,10.04
2023-03-25T20:29:23.004Z,9.93
2023-03-25T20:31:51.422Z,9.71
2023-03-25T20:34:19.876Z,9.82
2023-03-25T20:36:48.713Z,9.90
2023-03-25T20:39:17.174Z,9.87
2023-03-25T20:41:45.742Z,9.84
2023-03-25T20:44:14.318Z,9.89
2023-03-25T20:46:44.469Z,9.75
2023-03-25T20:49:15.862Z,9.74
2023-03-25T20:51:44.362Z,9.72
2023-03-25T20:54:16.487Z,9.78
2023-03-25T20:56:47.093Z,9.82
2023-03-25T20:59:17.189Z,9.91
2023-03-25T21:01:51.126Z,9.84
2023-03-25T21:04:23.612Z,9.73
2023-03-25T21:06:52.581Z,9.63
2023-03-25T21:09:21.764Z,9.70
2023-03-25T21:11:50.577Z,9.60
2023-03-25T21:14:19.447Z,9.43
2023-03-25T21:16:49.760Z,9.49
2023-03-25T21:19:19.466Z,9.43
2023-03-25T21:21:47.751Z,9.55
2023-03-25T21:24:21.775Z,9.60
2023-03-25T21:26:50.433Z,9.69
2023-03-25T21:29:19.559Z,9.70
2023-03-25T21:31:48.131Z,9.66
2023-03-25T21:34:17.102Z,9.73
2023-03-25T21:36:45.760Z,9.82
2023-03-25T21:39:14.168Z,9.88
2023-03-25T21:41:42.957Z,9.95
2023-03-25T21:44:12.949Z,9.90
2023-03-25T21:46:41.262Z,9.35
2023-03-25T21:49:11.885Z,9.67
2023-03-25T21:51:44.497Z,9.80
2023-03-25T21:54:14.617Z,9.91
2023-03-25T21:56:42.677Z,9.87
2023-03-25T21:59:10.666Z,9.47
2023-03-25T22:01:41.951Z,9.84
2023-03-25T22:04:11.026Z,9.74
2023-03-25T22:06:39.224Z,9.64
2023-03-25T22:09:09.008Z,9.64
2023-03-25T22:11:40.129Z,9.57
2023-03-25T22:14:09.867Z,9.53
2023-03-25T22:16:38.083Z,9.52
2023-03-25T22:19:07.214Z,9.27
2023-03-25T22:21:37.723Z,9.27
2023-03-25T22:24:08.100Z,9.27
2023-03-25T22:26:39.548Z,9.39
2023-03-25T22:29:09.286Z,9.62
2023-03-25T22:31:41.183Z,9.59
2023-03-25T22:34:13.464Z,9.58
2023-03-25T22:36:49.853Z,9.60
2023-03-25T22:39:20.662Z,9.68
2023-03-25T22:41:48.839Z,9.73
2023-03-25T22:44:18.365Z,9.70
2023-03-25T22:46:48.387Z,9.70
2023-03-25T22:49:17.340Z,9.66
2023-03-25T22:51:45.691Z,9.72
2023-03-25T22:54:13.692Z,9.75
2023-03-25T22:56:43.847Z,9.73
2023-03-25T22:59:13.518Z,9.63
2023-03-25T23:01:42.760Z,9.56
2023-03-25T23:04:11.280Z,9.52
2023-03-25T23:06:39.358Z,9.56
2023-03-25T23:09:09.306Z,9.50
2023-03-25T23:11:38.682Z,9.40
2023-03-25T23:14:10.008Z,9.36
2023-03-25T23:16:40.204Z,9.50
2023-03-25T23:19:10.270Z,9.63
2023-03-25T23:21:38.791Z,9.68
2023-03-25T23:24:08.460Z,9.52
2023-03-25T23:26:39.540Z,9.36
2023-03-25T23:29:11.220Z,9.32
2023-03-25T23:31:41.967Z,9.25
2023-03-25T23:34:12.710Z,9.33
2023-03-25T23:36:40.788Z,9.37
2023-03-25T23:39:12.470Z,9.44
2023-03-25T23:41:40.490Z,9.49
2023-03-25T23:44:08.589Z,9.55
2023-03-25T23:46:36.740Z,9.60
2023-03-25T23:49:05.963Z,9.64
2023-03-25T23:51:36.925Z,9.65
2023-03-25T23:54:09.120Z,9.62
2023-03-25T23:56:38.075Z,9.58
2023-03-25T23:59:07.841Z,9.57
